Time;durP1;ratioP1;P1;durP2;ratioP2;P2;SDS_P1;SDS_P2;PMS_P1;PMS_P2;Temp;Humidity;BMP_temperature;BMP_pressure;BME280_temperature;BME280_humidity;BME280_pressure;Samples;Min_cycle;Max_cycle;Signal;HPM_P1;HPM_P2
2023/11/07 00:02:15;;;;;;;5.68;2.75;;;11.50;99.90;;;;;;4998889;28;20033;-52
2023/11/07 00:04:42;;;;;;;11.45;5.15;;;11.40;99.90;;;;;;4998633;28;20054;-52
2023/11/07 00:07:09;;;;;;;8.18;3.53;;;11.50;99.90;;;;;;4998839;28;20030;-53
2023/11/07 00:09:35;;;;;;;6.85;3.17;;;11.60;99.90;;;;;;4998844;28;20104;-54
2023/11/07 00:12:02;;;;;;;5.93;3.00;;;;;;;;;;4998270;28;20049;-52
2023/11/07 00:14:28;;;;;;;4.35;2.47;;;;;;;;;;4998279;28;20042;-52
2023/11/07 00:16:55;;;;;;;5.60;2.60;;;;;;;;;;4998229;28;20033;-52
2023/11/07 00:19:21;;;;;;;6.72;2.78;;;;;;;;;;4998299;28;20433;-53
2023/11/07 00:21:47;;;;;;;6.82;2.38;;;;;;;;;;5016901;28;20041;-53
2023/11/07 00:24:14;;;;;;;8.57;2.60;;;;;;;;;;5021151;28;20405;-52
2023/11/07 00:26:41;;;;;;;5.50;1.98;;;;;;;;;;5021608;28;20036;-53
2023/11/07 00:29:07;;;;;;;39.95;15.00;;;;;;;;;;5021262;28;20366;-52
2023/11/07 00:31:33;;;;;;;14.82;5.70;;;;;;;;;;5021110;28;20478;-53
2023/11/07 00:34:01;;;;;;;5.88;2.42;;;;;;;;;;5020149;28;20061;-52
2023/11/07 00:36:26;;;;;;;6.93;2.20;;;12.00;99.90;;;;;;5020177;28;20030;-53
2023/11/07 00:38:52;;;;;;;127.30;105.50;;;12.10;99.90;;;;;;5021773;28;20029;-53
2023/11/07 00:41:19;;;;;;;7.90;2.95;;;12.10;99.90;;;;;;5024336;28;20376;-52
2023/11/07 00:43:48;;;;;;;7.53;2.60;;;;;;;;;;5024819;28;20033;-53
2023/11/07 00:46:13;;;;;;;4.70;2.20;;;11.60;99.90;;;;;;5024713;28;20099;-53
2023/11/07 00:48:39;;;;;;;8.73;2.85;;;11.30;99.90;;;;;;5024561;28;20786;-53
2023/11/07 00:51:05;;;;;;;4.50;2.40;;;11.20;99.90;;;;;;5024373;28;20389;-52
2023/11/07 00:53:31;;;;;;;11.60;5.15;;;11.10;99.90;;;;;;5024019;28;20428;-52
2023/11/07 00:56:17;;;;;;;10.23;3.58;;;11.00;99.90;;;;;;5024484;28;20026;-53
2023/11/07 00:58:42;;;;;;;28.77;17.05;;;11.00;99.90;;;;;;4982771;28;20674;-53
2023/11/07 01:01:08;;;;;;;99.47;74.03;;;11.00;99.90;;;;;;4982735;28;20123;-53
2023/11/07 01:03:34;;;;;;;7.60;3.80;;;11.00;99.90;;;;;;4982807;28;20050;-53
2023/11/07 01:06:00;;;;;;;11.20;4.32;;;10.80;99.90;;;;;;4982105;28;20073;-53
2023/11/07 01:08:27;;;;;;;11.55;4.50;;;;;;;;;;4982007;28;20042;-53
2023/11/07 01:10:53;;;;;;;16.00;8.13;;;;;;;;;;4981792;28;20042;-52
2023/11/07 01:13:19;;;;;;;28.60;12.30;;;10.50;99.90;;;;;;4982069;28;20030;-53
2023/11/07 01:15:45;;;;;;;36.38;17.00;;;;;;;;;;4982306;28;20080;-52
2023/11/07 01:18:11;;;;;;;19.33;9.43;;;;;;;;;;4966291;28;20445;-52
2023/11/07 01:20:37;;;;;;;12.00;7.60;;;;;;;;;;4982486;28;20511;-53
2023/11/07 01:23:04;;;;;;;10.68;5.20;;;;;;;;;;4965866;28;20147;-52
2023/11/07 01:25:29;;;;;;;9.30;3.72;;;11.10;99.90;;;;;;4949306;28;20038;-52
2023/11/07 01:27:55;;;;;;;4.07;2.35;;;10.90;99.90;;;;;;4981671;28;20062;-53
2023/11/07 01:30:24;;;;;;;7.07;2.75;;;11.10;99.90;;;;;;5013352;28;20037;-53
2023/11/07 01:32:50;;;;;;;6.15;2.42;;;11.50;99.90;;;;;;5023520;28;20075;-52
2023/11/07 01:35:20;;;;;;;2.53;1.40;;;11.60;99.90;;;;;;5006635;28;20035;-53
2023/11/07 01:37:45;;;;;;;6.25;2.38;;;11.80;99.90;;;;;;5023169;28;20025;-53
2023/11/07 01:40:12;;;;;;;6.70;2.88;;;12.00;99.90;;;;;;5004549;28;20041;-53
2023/11/07 01:42:45;;;;;;;7.68;2.65;;;12.20;99.90;;;;;;5004483;28;20047;-53
2023/11/07 01:45:11;;;;;;;9.88;3.25;;;12.30;99.90;;;;;;5022923;28;20025;-52
2023/11/07 01:47:38;;;;;;;6.95;2.95;;;12.40;99.90;;;;;;5022897;28;20476;-52
2023/11/07 01:50:08;;;;;;;6.82;2.95;;;12.50;99.90;;;;;;4987937;28;20044;-53
2023/11/07 01:52:34;;;;;;;12.40;4.22;;;;;;;;;;4989469;28;20128;-52
2023/11/07 01:55:01;;;;;;;8.65;4.72;;;12.60;99.90;;;;;;5022997;28;20029;-53
2023/11/07 01:57:27;;;;;;;7.47;4.18;;;12.60;99.90;;;;;;5022703;28;20087;-54
2023/11/07 01:59:53;;;;;;;7.10;2.90;;;12.50;99.90;;;;;;5004148;28;20033;-53
2023/11/07 02:02:21;;;;;;;6.72;3.60;;;12.50;99.90;;;;;;5023124;28;20029;-53
2023/11/07 02:04:47;;;;;;;13.05;6.28;;;12.40;99.90;;;;;;5029979;28;20425;-52
2023/11/07 02:07:13;;;;;;;13.07;4.60;;;;;;;;;;5023482;28;20037;-53
2023/11/07 02:09:41;;;;;;;19.35;12.95;;;12.10;99.90;;;;;;5042132;28;20025;-53
2023/11/07 02:12:08;;;;;;;18.60;8.30;;;11.80;99.90;;;;;;5042244;28;20041;-53
2023/11/07 02:14:35;;;;;;;7.25;3.13;;;11.80;99.90;;;;;;5042486;28;20079;-52
2023/11/07 02:17:05;;;;;;;23.10;10.90;;;11.90;99.90;;;;;;5042708;28;20384;-53
2023/11/07 02:19:33;;;;;;;8.52;3.97;;;11.90;99.90;;;;;;4991417;28;20124;-52
2023/11/07 02:22:01;;;;;;;5.93;3.38;;;11.60;99.90;;;;;;4966207;28;20037;-53
2023/11/07 02:24:30;;;;;;;9.75;3.95;;;11.60;99.90;;;;;;5041873;28;20366;-53
2023/11/07 02:26:56;;;;;;;10.50;4.53;;;11.60;99.90;;;;;;5042098;28;20059;-53
2023/11/07 02:29:22;;;;;;;88.47;73.63;;;11.80;99.90;;;;;;5041965;28;20033;-54
2023/11/07 02:31:49;;;;;;;640.08;583.33;;;11.80;99.90;;;;;;5042140;28;20399;-53
2023/11/07 02:34:15;;;;;;;380.52;349.42;;;11.90;99.90;;;;;;4991239;28;20480;-52
2023/11/07 02:36:42;;;;;;;490.38;447.33;;;12.00;99.90;;;;;;4991086;28;20037;-53
2023/11/07 02:39:08;;;;;;;30.15;12.55;;;12.00;99.90;;;;;;5042404;28;20029;-53
2023/11/07 02:41:34;;;;;;;11.57;2.70;;;12.10;99.90;;;;;;5042576;28;20453;-54
2023/11/07 02:44:00;;;;;;;6.88;2.30;;;12.20;99.90;;;;;;5041984;28;20079;-53
2023/11/07 02:46:26;;;;;;;165.75;148.18;;;12.30;99.90;;;;;;5041678;28;20029;-53
2023/11/07 02:48:52;;;;;;;8.30;2.33;;;12.30;99.90;;;;;;5041714;28;20035;-53
2023/11/07 02:51:19;;;;;;;10.00;2.30;;;;;;;;;;5041925;28;20039;-52
2023/11/07 02:53:45;;;;;;;8.13;3.13;;;12.40;99.90;;;;;;5041969;28;20534;-54
2023/11/07 02:56:11;;;;;;;11.13;3.55;;;12.40;99.90;;;;;;5024344;28;20029;-52
2023/11/07 02:58:37;;;;;;;7.90;2.63;;;12.30;99.90;;;;;;5042074;28;20609;-53
2023/11/07 03:01:03;;;;;;;6.50;2.30;;;12.30;99.90;;;;;;5041051;28;20028;-53
2023/11/07 03:03:30;;;;;;;5.55;2.58;;;12.40;99.90;;;;;;5041231;28;20352;-54
2023/11/07 03:05:56;;;;;;;6.68;2.38;;;12.40;99.90;;;;;;5040901;28;20073;-53
2023/11/07 03:08:22;;;;;;;8.93;2.47;;;12.40;99.90;;;;;;5041347;28;20025;-54
2023/11/07 03:10:47;;;;;;;8.05;2.10;;;12.50;99.90;;;;;;5041685;28;20040;-53
2023/11/07 03:13:13;;;;;;;9.05;3.00;;;12.50;99.90;;;;;;5006694;28;20045;-53
2023/11/07 03:15:39;;;;;;;102.50;61.60;;;12.30;99.90;;;;;;5041760;28;20029;-54
2023/11/07 03:18:05;;;;;;;8.40;2.20;;;;;;;;;;5042197;28;20080;-53
2023/11/07 03:20:32;;;;;;;8.77;2.30;;;12.30;99.90;;;;;;5041343;28;20108;-53
2023/11/07 03:22:58;;;;;;;8.18;3.35;;;12.30;99.90;;;;;;5040928;28;20420;-53
2023/11/07 03:25:25;;;;;;;6.15;2.58;;;12.30;99.90;;;;;;5040942;28;20024;-54
2023/11/07 03:27:51;;;;;;;6.95;1.90;;;12.30;99.90;;;;;;5040896;28;20032;-54
2023/11/07 03:30:17;;;;;;;6.60;2.50;;;12.20;99.90;;;;;;5041089;28;20021;-53
2023/11/07 03:32:44;;;;;;;9.02;2.78;;;12.20;99.90;;;;;;5041331;28;20460;-54
2023/11/07 03:35:11;;;;;;;7.85;2.13;;;12.10;99.90;;;;;;5041220;28;20443;-53
2023/11/07 03:37:39;;;;;;;7.28;2.35;;;12.10;99.90;;;;;;5041620;28;20021;-53
2023/11/07 03:40:06;;;;;;;6.07;2.33;;;12.20;99.90;;;;;;5041206;28;20087;-53
2023/11/07 03:42:32;;;;;;;7.68;2.63;;;12.30;99.90;;;;;;4989697;28;20489;-53
2023/11/07 03:44:58;;;;;;;10.02;2.40;;;12.30;99.90;;;;;;5040234;28;20498;-54
2023/11/07 03:47:24;;;;;;;8.38;2.65;;;;;;;;;;5040531;28;20029;-53
2023/11/07 03:49:51;;;;;;;9.35;2.88;;;;;;;;;;5040406;28;20032;-53
2023/11/07 03:52:17;;;;;;;13.98;2.70;;;12.20;99.90;;;;;;5006226;28;20087;-54
2023/11/07 03:54:43;;;;;;;7.35;2.10;;;;;;;;;;5041247;28;20029;-53
2023/11/07 03:57:09;;;;;;;10.90;3.67;;;;;;;;;;5041116;28;20037;-53
2023/11/07 03:59:35;;;;;;;10.20;2.25;;;;;;;;;;5041213;28;20029;-53
2023/11/07 04:02:03;;;;;;;4.53;2.25;;;;;;;;;;5040380;28;20021;-53
2023/11/07 04:04:29;;;;;;;10.05;2.95;;;;;;;;;;5040268;28;20061;-53
2023/11/07 04:06:55;;;;;;;7.55;2.45;;;;;;;;;;5040232;28;20025;-52
2023/11/07 04:09:22;;;;;;;7.88;2.45;;;;;;;;;;5005453;28;20033;-53
2023/11/07 04:11:48;;;;;;;7.57;2.72;;;;;;;;;;5040605;28;20025;-54
2023/11/07 04:14:17;;;;;;;7.82;2.55;;;11.40;99.90;;;;;;5046474;28;20051;-54
2023/11/07 04:16:44;;;;;;;8.75;2.20;;;11.90;99.90;;;;;;5047674;28;20526;-54
2023/11/07 04:19:12;;;;;;;4.45;1.88;;;11.90;99.90;;;;;;5047497;28;20036;-54
2023/11/07 04:21:37;;;;;;;6.63;2.00;;;11.90;99.90;;;;;;5047364;28;20051;-53
2023/11/07 04:24:07;;;;;;;10.10;2.30;;;12.00;99.90;;;;;;5045859;28;20025;-54
2023/11/07 04:26:33;;;;;;;8.35;2.85;;;12.00;99.90;;;;;;4999874;28;20033;-53
2023/11/07 04:28:59;;;;;;;5.72;2.03;;;12.10;99.90;;;;;;5047512;28;20025;-53
2023/11/07 04:31:27;;;;;;;9.32;2.22;;;12.10;99.90;;;;;;5047026;28;20033;-53
2023/11/07 04:33:53;;;;;;;7.15;2.42;;;12.20;99.90;;;;;;5046574;28;20025;-53
2023/11/07 04:36:19;;;;;;;6.43;2.33;;;12.20;99.90;;;;;;5046858;28;20476;-53
2023/11/07 04:38:45;;;;;;;7.18;2.15;;;12.30;99.90;;;;;;5047199;28;20028;-53
2023/11/07 04:41:14;;;;;;;4.45;1.83;;;12.40;99.90;;;;;;5047377;28;20116;-53
2023/11/07 04:43:39;;;;;;;6.80;1.90;;;12.50;99.90;;;;;;5047243;28;20061;-53
2023/11/07 04:46:06;;;;;;;8.50;3.50;;;12.50;99.90;;;;;;5046876;28;20056;-54
2023/11/07 04:48:32;;;;;;;8.95;2.00;;;12.50;99.90;;;;;;5046773;28;20037;-52
2023/11/07 04:51:02;;;;;;;8.57;2.15;;;12.40;99.90;;;;;;5045750;28;20373;-53
2023/11/07 04:53:28;;;;;;;8.23;2.88;;;12.30;99.90;;;;;;5047241;28;20121;-54
2023/11/07 04:55:54;;;;;;;11.27;3.28;;;12.20;99.90;;;;;;5019991;28;20034;-52
2023/11/07 04:58:20;;;;;;;4.15;1.88;;;12.20;99.90;;;;;;5046816;28;20033;-54
2023/11/07 05:00:46;;;;;;;10.77;2.35;;;12.20;99.90;;;;;;5046260;28;20029;-53
2023/11/07 05:03:12;;;;;;;5.68;1.92;;;12.20;99.90;;;;;;4978286;28;20094;-53
2023/11/07 05:05:37;;;;;;;4.72;2.70;;;12.10;99.90;;;;;;5044546;28;20068;-53
2023/11/07 05:08:04;;;;;;;6.70;3.05;;;12.10;99.90;;;;;;5047420;28;20055;-54
2023/11/07 05:10:30;;;;;;;5.93;3.53;;;12.20;99.90;;;;;;4994865;28;20053;-54
2023/11/07 05:12:56;;;;;;;6.78;2.92;;;12.20;99.90;;;;;;5046107;28;20025;-54
2023/11/07 05:15:22;;;;;;;8.25;2.83;;;12.20;99.90;;;;;;5045937;28;20373;-54
2023/11/07 05:17:48;;;;;;;7.38;3.15;;;12.30;99.90;;;;;;5048552;28;20033;-53
2023/11/07 05:20:15;;;;;;;8.18;2.80;;;12.30;99.90;;;;;;5046977;28;20115;-54
2023/11/07 05:22:41;;;;;;;9.95;3.97;;;12.30;99.90;;;;;;5046379;28;20118;-53
2023/11/07 05:25:07;;;;;;;12.45;3.10;;;12.40;99.90;;;;;;5045285;28;20025;-54
2023/11/07 05:27:33;;;;;;;7.82;3.00;;;12.30;99.90;;;;;;4944488;28;20045;-54
2023/11/07 05:29:59;;;;;;;9.18;3.10;;;12.40;99.90;;;;;;5045198;28;20031;-53
2023/11/07 05:32:25;;;;;;;8.35;3.65;;;12.40;99.90;;;;;;5042309;28;20075;-53
2023/11/07 05:34:51;;;;;;;11.90;4.60;;;12.50;99.90;;;;;;5043304;28;20037;-53
2023/11/07 05:37:17;;;;;;;11.27;4.68;;;12.50;99.90;;;;;;5006810;28;20038;-53
2023/11/07 05:39:46;;;;;;;14.02;4.90;;;12.50;99.90;;;;;;5041499;28;20034;-53
2023/11/07 05:42:12;;;;;;;14.20;5.28;;;12.60;99.90;;;;;;5041712;28;20469;-54
2023/11/07 05:44:38;;;;;;;10.38;5.30;;;12.60;99.90;;;;;;5006887;28;20167;-54
2023/11/07 05:47:04;;;;;;;8.07;4.40;;;12.60;99.90;;;;;;5040501;28;20378;-53
2023/11/07 05:49:30;;;;;;;8.82;3.95;;;12.60;99.90;;;;;;5008200;28;20036;-53
2023/11/07 05:51:56;;;;;;;8.25;3.92;;;12.60;99.90;;;;;;5023437;28;20064;-53
2023/11/07 05:54:23;;;;;;;11.57;4.15;;;12.60;99.90;;;;;;5042770;28;20043;-54
2023/11/07 05:56:49;;;;;;;9.98;4.18;;;12.70;99.90;;;;;;5045210;28;20112;-52
2023/11/07 05:59:15;;;;;;;9.35;5.63;;;;;;;;;;5041954;28;20021;-53
2023/11/07 06:01:41;;;;;;;20.65;11.18;;;13.20;99.90;;;;;;5040735;28;20116;-54
2023/11/07 06:04:08;;;;;;;11.60;7.15;;;;;;;;;;5043594;28;20121;-54
2023/11/07 06:06:35;;;;;;;10.23;4.72;;;;;;;;;;5042232;28;20025;-53
2023/11/07 06:09:02;;;;;;;16.13;6.70;;;;;;;;;;5042032;28;20519;-53
2023/11/07 06:11:28;;;;;;;11.25;5.45;;;;;;;;;;5041392;28;20072;-54
2023/11/07 06:13:54;;;;;;;14.30;6.40;;;;;;;;;;5043017;28;20083;-53
2023/11/07 06:16:21;;;;;;;11.25;5.45;;;;;;;;;;5042789;28;20357;-54
2023/11/07 06:18:48;;;;;;;10.88;5.90;;;;;;;;;;5041969;28;20671;-53
2023/11/07 06:21:14;;;;;;;12.93;6.78;;;;;;;;;;5007980;28;20045;-54
2023/11/07 06:23:41;;;;;;;13.35;6.28;;;;;;;;;;5043814;28;20067;-54
2023/11/07 06:26:08;;;;;;;13.82;7.72;;;;;;;;;;4999510;28;20095;-54
2023/11/07 06:28:34;;;;;;;20.15;9.85;;;;;;;;;;5043945;28;20044;-53
2023/11/07 06:31:00;;;;;;;18.15;9.40;;;;;;;;;;5035256;28;20385;-53
2023/11/07 06:33:27;;;;;;;20.08;11.57;;;;;;;;;;5033553;28;20029;-53
2023/11/07 06:35:53;;;;;;;19.60;10.73;;;14.00;99.90;;;;;;5032517;28;20029;-53
2023/11/07 06:38:21;;;;;;;17.00;10.82;;;13.90;99.90;;;;;;4982133;28;20044;-53
2023/11/07 06:40:46;;;;;;;25.40;11.90;;;13.90;99.90;;;;;;5033208;28;20469;-53
2023/11/07 06:43:12;;;;;;;22.05;11.15;;;13.80;99.90;;;;;;5033319;28;20037;-54
2023/11/07 06:45:38;;;;;;;23.52;14.15;;;13.90;99.90;;;;;;5033235;28;20034;-53
2023/11/07 06:48:04;;;;;;;22.08;13.25;;;14.00;99.90;;;;;;4981925;28;20041;-53
2023/11/07 06:50:30;;;;;;;24.65;13.90;;;14.10;99.90;;;;;;5032974;28;20037;-54
2023/11/07 06:52:55;;;;;;;24.67;15.68;;;14.10;99.90;;;;;;5033184;28;20112;-54
2023/11/07 06:55:24;;;;;;;22.00;15.15;;;14.20;99.90;;;;;;5033217;28;20092;-54
2023/11/07 06:57:52;;;;;;;27.48;15.27;;;14.20;99.90;;;;;;5032782;28;20034;-54
2023/11/07 07:00:21;;;;;;;23.23;11.40;;;14.30;99.90;;;;;;5033114;28;20029;-53
2023/11/07 07:02:48;;;;;;;20.70;11.73;;;14.40;99.90;;;;;;5032049;28;20069;-54
2023/11/07 07:05:15;;;;;;;23.67;13.82;;;14.60;99.90;;;;;;5032118;28;20711;-53
2023/11/07 07:07:41;;;;;;;33.28;18.30;;;14.60;99.90;;;;;;5032038;28;20114;-54
2023/11/07 07:10:09;;;;;;;25.15;13.65;;;14.60;99.90;;;;;;4981130;28;20029;-54
2023/11/07 07:12:38;;;;;;;24.08;15.05;;;14.60;99.90;;;;;;4933176;28;20500;-54
2023/11/07 07:15:09;;;;;;;23.52;14.70;;;14.80;99.90;;;;;;5032081;28;20436;-53
2023/11/07 07:17:35;;;;;;;23.52;13.75;;;14.90;99.90;;;;;;5033991;28;20108;-54
2023/11/07 07:20:03;;;;;;;26.80;15.52;;;15.00;99.90;;;;;;5019025;28;20032;-54
2023/11/07 07:22:29;;;;;;;25.05;15.63;;;15.20;99.90;;;;;;5014218;28;20041;-54
2023/11/07 07:24:55;;;;;;;26.30;15.90;;;15.30;99.90;;;;;;5051565;28;20082;-53
2023/11/07 07:27:24;;;;;;;26.15;17.55;;;15.40;99.90;;;;;;5051585;28;20029;-54
2023/11/07 07:29:50;;;;;;;25.92;16.98;;;15.20;99.90;;;;;;5051040;28;20036;-54
2023/11/07 07:32:16;;;;;;;29.13;19.67;;;15.20;99.90;;;;;;5051111;28;20738;-54
2023/11/07 07:34:42;;;;;;;32.92;20.08;;;15.30;99.90;;;;;;5051798;28;20074;-53
2023/11/07 07:37:09;;;;;;;32.75;20.98;;;15.30;99.90;;;;;;5051944;28;20067;-52
2023/11/07 07:39:35;;;;;;;61.17;37.17;;;15.30;99.90;;;;;;5000882;28;20113;-53
2023/11/07 07:42:11;;;;;;;29.95;19.45;;;15.50;99.90;;;;;;5051638;28;20482;-52
2023/11/07 07:44:38;;;;;;;32.20;19.05;;;15.50;99.90;;;;;;5003676;28;20051;-52
2023/11/07 07:47:04;;;;;;;30.42;19.60;;;15.60;99.90;;;;;;5015927;28;20029;-53
2023/11/07 07:49:30;;;;;;;41.60;24.88;;;15.50;99.90;;;;;;5051694;28;20025;-53
2023/11/07 07:52:01;;;;;;;44.60;27.35;;;15.40;99.90;;;;;;5051628;28;20082;-53
2023/11/07 07:54:29;;;;;;;41.85;26.88;;;15.40;99.90;;;;;;5051545;28;20024;-53
2023/11/07 07:56:56;;;;;;;41.42;26.30;;;15.40;99.90;;;;;;5051390;28;20488;-53
2023/11/07 07:59:23;;;;;;;50.75;29.23;;;15.50;99.90;;;;;;5051498;28;20028;-53
2023/11/07 08:01:55;;;;;;;41.67;26.58;;;15.80;99.90;;;;;;5051245;28;20029;-53
2023/11/07 08:04:26;;;;;;;39.00;25.77;;;16.00;99.90;;;;;;5051149;28;20053;-53
2023/11/07 08:06:53;;;;;;;46.03;25.25;;;;;;;;;;5051305;28;20103;-53
2023/11/07 08:09:19;;;;;;;29.05;20.25;;;16.60;99.90;;;;;;5051536;28;20119;-52
2023/11/07 08:11:50;;;;;;;33.08;19.33;;;;;;;;;;5051010;28;20065;-53
2023/11/07 08:14:17;;;;;;;31.17;18.15;;;;;;;;;;5049336;28;20499;-53
2023/11/07 08:16:46;;;;;;;24.83;13.52;;;;;;;;;;5050476;28;20029;-53
2023/11/07 08:19:12;;;;;;;21.92;12.90;;;18.00;99.90;;;;;;5051221;28;20029;-55
2023/11/07 08:21:41;;;;;;;18.90;12.02;;;18.10;99.90;;;;;;4999887;28;20147;-54
2023/11/07 08:24:08;;;;;;;37.35;21.83;;;18.10;99.90;;;;;;5051389;28;20503;-55
2023/11/07 08:26:37;;;;;;;29.67;20.17;;;;;;;;;;5051117;28;20112;-53
2023/11/07 08:29:06;;;;;;;21.17;11.77;;;;;;;;;;4999636;28;20492;-51
2023/11/07 08:31:33;;;;;;;17.83;10.82;;;;;;;;;;5050980;28;20039;-53
2023/11/07 08:33:59;;;;;;;17.98;11.35;;;;;;;;;;5050918;28;20029;-52
2023/11/07 08:36:26;;;;;;;17.90;11.65;;;;;;;;;;5051054;28;20112;-53
2023/11/07 08:38:52;;;;;;;71.72;44.40;;;;;;;;;;5050909;28;20049;-53
2023/11/07 08:41:18;;;;;;;18.52;11.23;;;;;;;;;;5051113;28;20033;-53
2023/11/07 08:43:45;;;;;;;37.65;20.85;;;20.10;99.90;;;;;;5051383;28;20033;-53
2023/11/07 08:46:16;;;;;;;19.27;12.07;;;20.20;99.90;;;;;;5049778;28;20398;-55
2023/11/07 08:48:44;;;;;;;18.77;11.25;;;;;;;;;;5050877;28;20064;-53
2023/11/07 08:51:10;;;;;;;23.35;11.98;;;22.70;99.90;;;;;;5051018;28;20060;-52
2023/11/07 08:53:35;;;;;;;19.15;11.88;;;22.80;99.90;;;;;;5050905;28;20476;-51
2023/11/07 08:56:03;;;;;;;20.08;11.82;;;22.80;99.90;;;;;;5050824;28;20520;-54
2023/11/07 08:58:30;;;;;;;19.52;10.32;;;22.20;99.90;;;;;;5000288;28;20037;-51
2023/11/07 09:00:58;;;;;;;20.27;11.18;;;21.90;99.90;;;;;;5053534;28;20032;-51
2023/11/07 09:03:24;;;;;;;23.98;12.85;;;21.80;99.90;;;;;;5054808;28;20072;-54
2023/11/07 09:05:50;;;;;;;22.58;11.75;;;21.70;99.90;;;;;;5054408;28;20060;-53
2023/11/07 09:08:15;;;;;;;20.25;10.30;;;21.60;99.90;;;;;;5054605;28;20021;-53
2023/11/07 09:10:41;;;;;;;19.50;10.45;;;21.60;99.90;;;;;;5054261;28;20021;-53
2023/11/07 09:13:10;;;;;;;20.92;11.68;;;;;;;;;;5054519;28;20029;-53
2023/11/07 09:15:37;;;;;;;18.45;10.45;;;21.30;99.90;;;;;;5054643;28;20029;-53
2023/11/07 09:18:02;;;;;;;18.75;12.63;;;21.00;99.90;;;;;;5054435;28;20471;-52
2023/11/07 09:20:28;;;;;;;26.15;13.82;;;21.00;99.90;;;;;;5054310;28;20024;-52
2023/11/07 09:22:54;;;;;;;21.67;13.63;;;21.00;99.90;;;;;;5002238;28;20548;-52
2023/11/07 09:25:21;;;;;;;24.13;12.55;;;21.00;99.90;;;;;;5053525;28;20029;-52
2023/11/07 09:27:47;;;;;;;28.15;15.25;;;21.00;99.90;;;;;;5002764;28;20128;-52
2023/11/07 09:30:13;;;;;;;23.85;13.30;;;21.20;99.90;;;;;;5053951;28;20164;-53
2023/11/07 09:32:40;;;;;;;22.90;13.02;;;21.30;99.90;;;;;;5054092;28;20395;-53
2023/11/07 09:35:06;;;;;;;19.15;12.27;;;21.30;99.90;;;;;;5053839;28;20021;-52
2023/11/07 09:37:36;;;;;;;22.30;13.15;;;21.30;99.90;;;;;;5053560;28;20036;-54
2023/11/07 09:40:10;;;;;;;21.17;11.40;;;21.40;99.90;;;;;;5053752;28;20503;-52
2023/11/07 09:42:37;;;;;;;24.55;12.77;;;21.40;99.90;;;;;;5019751;28;20033;-52
2023/11/07 09:45:11;;;;;;;18.65;12.65;;;21.80;99.90;;;;;;5053283;28;20158;-53
2023/11/07 09:47:38;;;;;;;19.55;11.32;;;22.50;99.90;;;;;;5018362;28;20029;-52
2023/11/07 09:50:07;;;;;;;20.45;11.00;;;22.20;99.90;;;;;;5053518;28;20037;-52
2023/11/07 09:52:34;;;;;;;22.23;12.35;;;22.20;99.90;;;;;;5001897;28;20127;-52
2023/11/07 09:55:06;;;;;;;31.77;16.92;;;22.20;99.90;;;;;;5053414;28;20090;-53
2023/11/07 09:57:38;;;;;;;34.22;16.95;;;22.10;99.90;;;;;;5053485;28;20041;-53
2023/11/07 10:00:08;;;;;;;32.40;17.52;;;21.80;99.90;;;;;;5052958;28;20033;-53
2023/11/07 10:02:34;;;;;;;32.97;21.13;;;21.70;99.90;;;;;;5002616;28;20079;-52
2023/11/07 10:05:00;;;;;;;38.83;22.75;;;21.30;99.90;;;;;;5052825;28;20088;-51
2023/11/07 10:07:26;;;;;;;43.05;24.17;;;21.40;99.90;;;;;;4965609;28;20137;-52
2023/11/07 10:09:54;;;;;;;21.92;11.75;;;;;;;;;;5033759;28;20029;-52
2023/11/07 10:12:20;;;;;;;25.65;11.48;;;20.90;99.90;;;;;;4982452;28;20061;-53
2023/11/07 10:14:46;;;;;;;19.65;11.95;;;20.60;99.90;;;;;;4996678;28;20042;-55
2023/11/07 10:17:22;;;;;;;24.10;15.38;;;;;;;;;;5034656;28;20029;-52
2023/11/07 10:20:06;;;;;;;23.42;15.20;;;;;;;;;;5053089;28;20025;-54
2023/11/07 10:22:47;;;;;;;25.08;13.93;;;20.30;99.90;;;;;;5053132;28;20036;-53
2023/11/07 10:25:36;;;;;;;27.52;12.05;;;20.20;99.90;;;;;;5052947;28;20025;-54
2023/11/07 10:28:06;;;;;;;33.88;15.70;;;20.30;99.90;;;;;;5012735;28;20038;-57
2023/11/07 10:30:39;;;;;;;28.67;17.30;;;20.20;99.90;;;;;;4988733;28;20077;-54
2023/11/07 10:33:06;;;;;;;37.83;22.83;;;20.20;99.90;;;;;;5000531;28;20049;-54
2023/11/07 10:35:50;;;;;;;28.77;19.45;;;20.20;99.90;;;;;;5010711;28;20030;-54
2023/11/07 10:38:16;;;;;;;35.30;21.90;;;20.30;99.90;;;;;;5010361;28;20446;-54
2023/11/07 10:40:43;;;;;;;29.20;19.70;;;20.30;99.90;;;;;;5010418;28;20034;-54
2023/11/07 10:43:09;;;;;;;36.33;19.50;;;20.30;99.90;;;;;;5005832;28;20038;-52
2023/11/07 10:45:41;;;;;;;29.45;17.35;;;21.00;99.90;;;;;;4999698;28;20038;-53
2023/11/07 10:48:08;;;;;;;28.40;17.55;;;;;;;;;;4998946;28;20038;-55
2023/11/07 10:50:35;;;;;;;27.27;15.82;;;;;;;;;;4960816;28;20510;-55
2023/11/07 10:53:01;;;;;;;27.67;14.77;;;;;;;;;;4961731;28;20031;-55
2023/11/07 10:55:28;;;;;;;23.73;14.43;;;;;;;;;;4959881;28;20047;-55
2023/11/07 10:58:02;;;;;;;20.98;11.90;;;;;;;;;;4913691;28;20031;-53
2023/11/07 11:00:32;;;;;;;22.15;10.55;;;;;;;;;;4981437;28;20073;-53
2023/11/07 11:02:58;;;;;;;19.92;10.82;;;;;;;;;;4989630;28;20072;-56
2023/11/07 11:05:24;;;;;;;18.45;8.38;;;23.20;99.90;;;;;;4989733;28;20146;-52
2023/11/07 11:07:52;;;;;;;22.23;11.30;;;22.80;99.90;;;;;;4987367;28;20042;-54
2023/11/07 11:10:21;;;;;;;20.77;12.95;;;;;;;;;;4989992;28;20509;-54
2023/11/07 11:12:50;;;;;;;26.05;13.32;;;;;;;;;;4990264;28;20077;-53
2023/11/07 11:15:17;;;;;;;23.77;13.27;;;21.80;99.90;;;;;;4989875;28;20045;-54
2023/11/07 11:17:55;;;;;;;28.25;13.82;;;21.50;99.90;;;;;;4989918;28;20492;-56
2023/11/07 11:20:33;;;;;;;26.33;13.35;;;22.00;99.90;;;;;;4990155;28;20038;-53
2023/11/07 11:23:10;;;;;;;27.58;12.18;;;;;;;;;;4989585;28;20085;-54
2023/11/07 11:26:06;;;;;;;20.38;9.63;;;;;;;;;;4990037;28;20178;-56
2023/11/07 11:28:40;;;;;;;18.40;8.90;;;23.20;99.90;;;;;;5018864;28;20040;-56
2023/11/07 11:31:08;;;;;;;17.25;9.18;;;;;;;;;;5052104;28;20037;-55
2023/11/07 11:33:34;;;;;;;16.20;9.02;;;;;;;;;;5051515;28;20439;-56
2023/11/07 11:36:00;;;;;;;17.88;9.93;;;;;;;;;;5051718;28;20025;-53
2023/11/07 11:38:39;;;;;;;18.15;11.98;;;24.20;98.90;;;;;;5051406;28;20037;-56
2023/11/07 11:41:06;;;;;;;20.30;12.93;;;23.70;98.60;;;;;;5016193;28;20041;-56
2023/11/07 11:43:55;;;;;;;20.63;10.70;;;23.20;99.70;;;;;;5051543;28;20040;-57
2023/11/07 11:46:40;;;;;;;21.45;10.20;;;24.00;99.90;;;;;;5051473;28;20044;-54
2023/11/07 11:49:07;;;;;;;16.33;9.02;;;24.50;99.90;;;;;;5051434;28;20032;-54
2023/11/07 11:51:40;;;;;;;19.30;11.40;;;;;;;;;;5051279;28;20133;-54
2023/11/07 11:54:07;;;;;;;14.02;8.05;;;;;;;;;;5051450;28;20115;-55
2023/11/07 11:56:53;;;;;;;15.80;8.20;;;25.60;97.60;;;;;;5051820;28;20021;-56
2023/11/07 11:59:24;;;;;;;14.93;9.43;;;25.40;95.80;;;;;;5051319;28;20033;-56
2023/11/07 12:01:58;;;;;;;16.10;9.97;;;25.30;95.50;;;;;;5051227;28;20044;-54
2023/11/07 12:04:38;;;;;;;18.08;10.15;;;25.10;95.90;;;;;;5051333;28;20339;-54
2023/11/07 12:07:07;;;;;;;19.63;8.85;;;25.20;96.60;;;;;;5051524;28;20043;-54
2023/11/07 12:09:34;;;;;;;15.20;9.98;;;25.20;96.00;;;;;;5051156;28;20029;-53
2023/11/07 12:12:00;;;;;;;20.67;8.63;;;25.20;95.60;;;;;;5051024;28;20040;-54
2023/11/07 12:14:26;;;;;;;16.08;10.00;;;25.10;96.00;;;;;;5051195;28;20112;-56
2023/11/07 12:17:01;;;;;;;24.83;9.45;;;25.00;96.10;;;;;;4999437;28;20501;-55
2023/11/07 12:19:30;;;;;;;12.23;6.90;;;24.90;96.00;;;;;;5051033;28;20380;-53
2023/11/07 12:21:59;;;;;;;16.90;6.80;;;24.70;95.20;;;;;;5050989;28;20021;-54
2023/11/07 12:24:26;;;;;;;12.18;6.82;;;24.50;95.30;;;;;;5051204;28;20029;-54
2023/11/07 12:26:52;;;;;;;11.48;5.97;;;24.40;95.40;;;;;;5050960;28;20373;-55
2023/11/07 12:29:36;;;;;;;9.77;5.80;;;24.30;95.50;;;;;;4956822;28;20055;-56
2023/11/07 12:32:06;;;;;;;13.40;6.57;;;;;;;;;;4989129;28;20046;-52
2023/11/07 12:34:33;;;;;;;10.77;6.35;;;;;;;;;;4991671;28;20493;-52
2023/11/07 12:37:04;;;;;;;14.23;6.60;;;;;;;;;;4993259;28;20029;-55
2023/11/07 12:39:31;;;;;;;11.02;6.75;;;;;;;;;;4993325;28;20136;-55
2023/11/07 12:41:59;;;;;;;10.30;5.50;;;23.00;99.90;;;;;;4993053;28;20046;-54
2023/11/07 12:44:27;;;;;;;9.65;5.30;;;23.10;99.90;;;;;;4993447;28;20049;-56
2023/11/07 12:46:55;;;;;;;12.85;5.65;;;23.00;99.90;;;;;;5003416;28;20046;-55
2023/11/07 12:49:20;;;;;;;12.25;4.65;;;22.60;98.50;;;;;;4993661;28;20500;-55
2023/11/07 12:51:47;;;;;;;16.92;5.65;;;22.60;99.30;;;;;;4992989;28;20038;-53
2023/11/07 12:54:14;;;;;;;15.82;5.60;;;22.70;99.80;;;;;;4993928;28;20200;-56
2023/11/07 12:56:44;;;;;;;15.00;6.38;;;22.70;99.70;;;;;;4987643;28;20607;-56
2023/11/07 12:59:14;;;;;;;14.43;5.35;;;22.80;99.90;;;;;;4952455;28;20037;-54
2023/11/07 13:01:43;;;;;;;9.45;4.97;;;22.70;99.30;;;;;;4975528;28;20141;-55
2023/11/07 13:04:13;;;;;;;14.18;5.13;;;22.40;99.10;;;;;;4993068;28;20038;-56